createdAt,value
2019-05-13T00:09:28.003Z,100868.66
2019-05-13T00:19:28.775Z,100874.64
2019-05-13T00:29:29.502Z,100871.53
2019-05-13T00:39:33.406Z,100865.66
2019-05-13T00:49:34.544Z,100872.59
2019-05-13T00:59:35.540Z,100886.05
2019-05-13T01:09:37.335Z,100884.17
2019-05-13T01:19:39.999Z,100885.31
2019-05-13T01:29:43.527Z,100884.41
2019-05-13T01:39:45.330Z,100887.64
2019-05-13T01:49:46.086Z,100899.91
2019-05-13T01:59:46.869Z,100902.33
2019-05-13T02:09:47.675Z,100903.03
2019-05-13T02:19:48.433Z,100901.53
2019-05-13T02:29:50.271Z,100902.48
2019-05-13T02:39:53.143Z,100909.83
2019-05-13T02:49:55.792Z,100906.27
2019-05-13T02:59:57.532Z,100905.14
2019-05-13T03:09:58.284Z,100894.89
2019-05-13T03:20:03.785Z,100895.25
2019-05-13T03:30:04.590Z,100892.11
2019-05-13T03:40:06.578Z,100935.59
2019-05-13T03:50:08.346Z,100937.67
2019-05-13T04:00:12.831Z,100931.41
2019-05-13T04:10:13.390Z,100951.59
2019-05-13T04:20:14.273Z,100943.50
2019-05-13T04:30:15.139Z,100969.78
2019-05-13T04:40:15.793Z,100957.77
2019-05-13T04:50:16.505Z,100969.48
2019-05-13T05:00:23.399Z,100983.03
2019-05-13T05:10:49.802Z,100996.48
2019-05-13T05:21:01.475Z,100994.80
2019-05-13T05:31:41.322Z,101012.48
2019-05-13T05:41:45.140Z,101016.15
2019-05-13T05:51:47.725Z,101021.14
2019-05-13T06:01:52.620Z,101016.70
2019-05-13T06:11:54.065Z,101016.05
2019-05-13T06:21:54.845Z,101013.13
2019-05-13T06:31:56.599Z,101011.59
2019-05-13T06:41:57.329Z,101022.31
2019-05-13T06:52:01.673Z,101014.89
2019-05-13T07:02:02.690Z,101015.64
2019-05-13T07:12:03.737Z,101015.67
2019-05-13T07:22:04.443Z,101024.18
2019-05-13T07:32:05.228Z,101023.15
2019-05-13T07:42:06.726Z,101016.91
2019-05-13T07:52:18.312Z,101022.01
2019-05-13T08:02:25.886Z,101027.27
2019-05-13T08:12:28.112Z,101008.89
2019-05-13T08:22:28.912Z,101020.95
2019-05-13T08:32:31.432Z,101013.22
2019-05-13T08:42:38.121Z,100995.28
2019-05-13T08:52:42.051Z,100995.19
2019-05-13T09:02:44.594Z,100992.59
2019-05-13T09:12:46.295Z,100996.92
2019-05-13T09:22:46.957Z,100986.67
2019-05-13T09:32:47.669Z,100982.02
2019-05-13T09:42:52.842Z,100996.20
2019-05-13T09:52:52.200Z,100974.16
2019-05-13T10:02:52.909Z,100962.83
2019-05-13T10:13:09.103Z,100955.28
2019-05-13T10:23:01.696Z,100936.77
2019-05-13T10:43:54.020Z,100944.81
2019-05-13T10:53:59.510Z,100944.31
2019-05-13T11:14:42.205Z,100924.28
2019-05-13T11:24:47.264Z,100927.63
2019-05-13T11:34:48.112Z,100921.57
2019-05-13T11:55:13.025Z,100910.88
2019-05-13T12:05:13.812Z,100905.83
2019-05-13T12:15:27.174Z,100887.67
2019-05-13T12:25:18.636Z,100862.19
2019-05-13T12:56:48.013Z,100844.98
2019-05-13T13:06:48.777Z,100833.92
2019-05-13T13:16:53.465Z,100812.45
2019-05-13T13:26:53.424Z,100798.02
2019-05-13T13:58:25.376Z,100777.97
2019-05-13T14:08:25.604Z,100762.71
2019-05-13T14:18:27.315Z,100765.41
2019-05-13T14:28:42.045Z,100752.33
2019-05-13T15:21:01.678Z,100718.98
2019-05-13T15:41:47.700Z,100706.98
2019-05-13T16:23:32.808Z,100688.36
2019-05-13T16:33:33.507Z,100682.60
2019-05-13T16:43:35.141Z,100681.89
2019-05-13T16:53:52.082Z,100694.02
2019-05-13T17:03:48.130Z,100671.98
2019-05-13T17:34:54.769Z,100670.94
2019-05-13T17:44:55.863Z,100670.30
2019-05-13T17:54:56.614Z,100674.45
2019-05-13T18:04:57.316Z,100664.56
2019-05-13T18:14:58.438Z,100671.98
2019-05-13T18:24:59.437Z,100673.60
2019-05-13T18:35:01.710Z,100671.24
2019-05-13T18:45:06.214Z,100661.84
2019-05-13T18:55:07.226Z,100661.41
2019-05-13T19:05:08.602Z,100661.09
2019-05-13T19:15:11.393Z,100680.77
2019-05-13T19:25:12.342Z,100679.31
2019-05-13T19:35:13.476Z,100681.02
2019-05-13T19:45:14.458Z,100696.48
2019-05-13T20:05:46.202Z,100703.67
2019-05-13T20:15:48.016Z,100707.05
2019-05-13T20:25:52.074Z,100707.41
2019-05-13T20:35:52.533Z,100703.80
2019-05-13T20:45:53.925Z,100704.80
2019-05-13T20:55:54.682Z,100696.23
2019-05-13T21:05:56.243Z,100713.89
2019-05-13T21:15:57.959Z,100700.75
2019-05-13T21:26:01.397Z,100707.95
2019-05-13T21:36:17.151Z,100694.17
2019-05-13T21:57:15.498Z,100699.58
2019-05-13T22:17:48.655Z,100712.11
2019-05-13T22:49:31.514Z,100702.07
2019-05-13T22:59:32.207Z,100699.54
2019-05-13T23:09:49.103Z,100705.05
2019-05-13T23:19:47.341Z,100695.23
2019-05-13T23:29:48.313Z,100687.01
2019-05-13T23:39:49.000Z,100678.78
2019-05-13T23:49:51.312Z,100675.19
2019-05-13T23:59:52.223Z,100670.10
